createdAt,value
2019-02-25T00:00:14.273Z,64.03
2019-02-25T00:02:42.906Z,65.00
2019-02-25T00:05:11.534Z,68.57
2019-02-25T00:07:40.251Z,63.03
2019-02-25T00:10:10.278Z,61.50
2019-02-25T00:12:38.906Z,57.60
2019-02-25T00:15:09.824Z,60.47
2019-02-25T00:17:40.430Z,61.40
2019-02-25T00:20:12.601Z,54.70
2019-02-25T00:22:41.256Z,57.43
2019-02-25T00:25:12.247Z,57.67
2019-02-25T00:27:40.867Z,57.20
2019-02-25T00:30:15.168Z,56.77
2019-02-25T00:32:43.797Z,56.43
2019-02-25T00:35:12.422Z,57.70
2019-02-25T00:37:41.103Z,54.60
2019-02-25T00:40:12.329Z,57.70
2019-02-25T00:42:40.915Z,50.67
2019-02-25T00:45:11.577Z,54.40
2019-02-25T00:47:40.208Z,50.37
2019-02-25T00:50:17.527Z,51.50
2019-02-25T00:52:46.259Z,50.33
2019-02-25T00:55:15.396Z,47.00
2019-02-25T00:57:44.177Z,49.83
2019-02-25T01:00:18.159Z,49.57
2019-02-25T01:02:46.792Z,52.60
2019-02-25T01:05:16.234Z,47.80
2019-02-25T01:07:44.869Z,49.50
2019-02-25T01:10:15.213Z,46.80
2019-02-25T01:12:45.447Z,49.43
2019-02-25T01:15:14.379Z,41.77
2019-02-25T01:17:43.025Z,48.47
2019-02-25T01:20:13.911Z,47.03
2019-02-25T01:22:42.470Z,42.37
2019-02-25T01:25:12.812Z,43.63
2019-02-25T01:27:41.480Z,44.57
2019-02-25T01:30:15.369Z,30.57
2019-02-25T01:32:44.016Z,32.53
2019-02-25T01:35:13.853Z,38.00
2019-02-25T01:37:42.590Z,32.10
2019-02-25T01:40:12.717Z,33.47
2019-02-25T01:42:41.387Z,27.10
2019-02-25T01:45:20.672Z,26.53
2019-02-25T01:50:26.685Z,24.57
2019-02-25T01:52:55.309Z,24.90
2019-02-25T01:55:23.830Z,21.67
2019-02-25T01:57:52.390Z,23.10
2019-02-25T02:00:20.979Z,22.47
2019-02-25T02:02:49.600Z,22.93
2019-02-25T02:05:18.150Z,23.30
2019-02-25T02:07:46.742Z,24.33
2019-02-25T02:10:16.450Z,27.50
2019-02-25T02:12:45.078Z,23.67
2019-02-25T02:15:19.644Z,24.27
2019-02-25T02:17:48.265Z,24.37
2019-02-25T02:20:17.923Z,23.07
2019-02-25T02:22:46.597Z,24.83
2019-02-25T02:25:15.528Z,23.53
2019-02-25T02:27:44.153Z,25.73
2019-02-25T02:30:18.600Z,23.73
2019-02-25T02:32:47.228Z,27.30
2019-02-25T02:35:15.855Z,24.40
2019-02-25T02:37:44.850Z,23.23
2019-02-25T02:40:14.582Z,23.30
2019-02-25T02:42:49.124Z,23.37
2019-02-25T02:45:20.662Z,24.17
2019-02-25T02:48:01.515Z,26.10
2019-02-25T02:50:30.067Z,22.43
2019-02-25T02:52:58.682Z,24.20
2019-02-25T02:55:27.348Z,23.90
2019-02-25T02:57:55.979Z,24.27
2019-02-25T03:00:24.599Z,23.33
2019-02-25T03:02:53.261Z,24.83
2019-02-25T03:05:21.808Z,22.00
2019-02-25T03:07:50.452Z,23.77
2019-02-25T03:10:19.900Z,20.80
2019-02-25T03:12:48.451Z,22.70
2019-02-25T03:15:21.491Z,26.93
2019-02-25T03:17:50.143Z,23.30
2019-02-25T03:20:18.776Z,25.37
2019-02-25T03:22:47.405Z,24.20
2019-02-25T03:25:17.600Z,24.17
2019-02-25T03:27:46.164Z,27.27
2019-02-25T03:30:17.220Z,28.90
2019-02-25T03:32:46.106Z,27.87
2019-02-25T03:35:14.835Z,24.27
2019-02-25T03:37:44.266Z,24.07
2019-02-25T03:40:21.200Z,26.90
2019-02-25T03:42:50.085Z,27.13
2019-02-25T03:45:19.718Z,26.40
2019-02-25T03:47:48.329Z,23.53
2019-02-25T03:50:16.971Z,25.50
2019-02-25T03:52:45.597Z,24.13
2019-02-25T03:55:21.262Z,26.73
2019-02-25T03:57:50.491Z,28.10
2019-02-25T04:00:25.898Z,26.07
2019-02-25T04:02:54.517Z,25.13
2019-02-25T04:05:23.158Z,26.93
2019-02-25T04:07:51.821Z,26.63
2019-02-25T04:10:20.386Z,25.13
2019-02-25T04:12:49.011Z,27.53
2019-02-25T04:15:20.823Z,27.77
2019-02-25T04:17:49.430Z,23.97
2019-02-25T04:20:18.370Z,28.63
2019-02-25T04:22:47.044Z,29.03
2019-02-25T04:25:15.679Z,26.33
2019-02-25T04:27:44.344Z,26.37
2019-02-25T04:30:17.192Z,29.73
2019-02-25T04:32:45.866Z,28.33
2019-02-25T04:35:14.930Z,28.07
2019-02-25T04:37:43.523Z,27.60
2019-02-25T04:40:14.103Z,31.97
2019-02-25T04:42:42.730Z,29.30
2019-02-25T04:45:14.035Z,31.67
2019-02-25T04:47:42.595Z,28.20
2019-02-25T04:50:12.663Z,32.57
2019-02-25T04:52:41.145Z,29.40
2019-02-25T04:55:11.566Z,32.23
2019-02-25T04:57:40.181Z,32.07
2019-02-25T05:00:14.671Z,33.73
2019-02-25T05:02:43.332Z,34.00
2019-02-25T05:05:11.980Z,36.13
2019-02-25T05:07:40.569Z,33.27
2019-02-25T05:10:14.506Z,35.73
2019-02-25T05:12:44.763Z,34.77
2019-02-25T05:15:15.092Z,36.70
2019-02-25T05:17:43.748Z,37.63
2019-02-25T05:20:12.571Z,39.40
2019-02-25T05:22:41.193Z,38.60
2019-02-25T05:25:11.620Z,37.20
2019-02-25T05:27:40.255Z,38.10
2019-02-25T05:30:11.516Z,43.67
2019-02-25T05:32:40.151Z,40.00
2019-02-25T05:35:10.681Z,35.57
2019-02-25T05:37:39.376Z,36.37
2019-02-25T05:40:15.910Z,40.57
2019-02-25T05:42:44.644Z,34.60
2019-02-25T05:45:14.179Z,43.53
2019-02-25T05:47:42.732Z,39.23
2019-02-25T05:50:19.241Z,39.50
2019-02-25T05:52:47.866Z,36.70
2019-02-25T05:55:17.869Z,33.97
2019-02-25T05:57:46.526Z,36.43
2019-02-25T06:00:19.714Z,48.17
2019-02-25T06:02:48.349Z,40.17
2019-02-25T06:05:17.014Z,35.27
2019-02-25T06:07:45.654Z,36.20
2019-02-25T06:10:14.764Z,35.33
2019-02-25T06:12:43.439Z,38.43
2019-02-25T06:15:17.722Z,45.87
2019-02-25T06:17:46.413Z,137.97
2019-02-25T06:20:17.135Z,68.63
2019-02-25T06:22:46.045Z,50.93
2019-02-25T06:25:15.821Z,38.83
2019-02-25T06:27:44.587Z,46.33
2019-02-25T06:30:18.900Z,38.77
2019-02-25T06:32:47.545Z,41.47
2019-02-25T06:35:16.199Z,50.00
2019-02-25T06:37:44.929Z,51.30
2019-02-25T06:40:17.627Z,47.40
2019-02-25T06:42:46.277Z,36.53
2019-02-25T06:45:19.731Z,36.40
2019-02-25T06:47:48.365Z,31.60
2019-02-25T06:50:18.533Z,35.60
2019-02-25T06:52:47.090Z,29.47
2019-02-25T06:55:17.449Z,32.83
2019-02-25T06:57:45.978Z,33.10
2019-02-25T07:00:19.693Z,33.20
2019-02-25T07:02:48.312Z,35.60
2019-02-25T07:05:18.616Z,39.20
2019-02-25T07:07:57.641Z,35.63
2019-02-25T07:10:43.980Z,36.70
2019-02-25T07:13:19.905Z,36.20
2019-02-25T07:15:50.141Z,52.90
2019-02-25T07:18:22.930Z,34.70
2019-02-25T07:21:09.293Z,36.37
2019-02-25T07:23:42.186Z,37.47
2019-02-25T07:26:28.837Z,55.00
2019-02-25T07:29:15.038Z,49.23
2019-02-25T07:31:48.317Z,48.10
2019-02-25T07:34:21.475Z,37.57
2019-02-25T07:36:54.786Z,33.73
2019-02-25T07:39:40.850Z,31.13
2019-02-25T07:42:11.220Z,34.73
2019-02-25T07:44:47.318Z,31.80
2019-02-25T07:47:17.591Z,33.90
2019-02-25T07:50:03.870Z,34.67
2019-02-25T07:52:34.119Z,32.47
2019-02-25T07:55:10.284Z,35.43
2019-02-25T07:57:43.623Z,31.03
2019-02-25T08:00:14.207Z,30.87
2019-02-25T08:02:50.454Z,29.43
2019-02-25T08:05:29.608Z,31.97
2019-02-25T08:08:02.658Z,33.33
2019-02-25T08:10:35.710Z,36.60
2019-02-25T08:13:11.684Z,39.93
2019-02-25T08:15:41.875Z,48.90
2019-02-25T08:18:12.142Z,50.83
2019-02-25T08:20:50.514Z,53.90
2019-02-25T08:23:20.725Z,48.80
2019-02-25T08:25:59.965Z,45.27
2019-02-25T08:28:45.298Z,42.87
2019-02-25T08:31:27.717Z,44.83
2019-02-25T08:33:59.487Z,37.37
2019-02-25T08:37:02.878Z,36.63
2019-02-25T08:39:39.506Z,38.10
2019-02-25T08:42:09.763Z,38.70
2019-02-25T08:44:48.694Z,37.20
2019-02-25T08:47:18.975Z,36.43
2019-02-25T08:49:50.310Z,41.07
2019-02-25T08:52:19.033Z,41.90
2019-02-25T08:54:47.695Z,38.20
2019-02-25T08:57:16.416Z,45.27
2019-02-25T08:59:45.083Z,36.10
2019-02-25T09:02:13.724Z,36.60
2019-02-25T09:04:42.353Z,31.60
2019-02-25T09:07:11.091Z,40.03
2019-02-25T09:09:39.769Z,34.70
2019-02-25T09:12:08.404Z,27.83
2019-02-25T09:14:36.984Z,31.40
2019-02-25T09:17:05.739Z,27.87
2019-02-25T09:19:36.045Z,32.30
2019-02-25T09:22:04.947Z,32.50
2019-02-25T09:24:33.625Z,32.93
2019-02-25T09:27:02.361Z,28.87
2019-02-25T09:29:33.166Z,27.17
2019-02-25T09:32:01.834Z,33.67
2019-02-25T09:34:31.792Z,28.93
2019-02-25T09:37:00.354Z,29.77
2019-02-25T09:39:29.046Z,30.73
2019-02-25T09:41:59.156Z,41.60
2019-02-25T09:44:27.712Z,37.37
2019-02-25T09:46:56.574Z,34.83
2019-02-25T09:49:25.145Z,38.17
2019-02-25T09:51:53.733Z,32.97
2019-02-25T09:54:22.320Z,26.83
2019-02-25T09:56:52.343Z,35.03
2019-02-25T09:59:20.997Z,32.30
2019-02-25T10:01:49.652Z,31.20
2019-02-25T10:04:18.209Z,28.00
2019-02-25T10:06:46.862Z,22.23
2019-02-25T10:09:15.528Z,29.73
2019-02-25T10:11:44.168Z,26.33
2019-02-25T10:14:14.546Z,28.30
2019-02-25T10:16:43.220Z,26.30
2019-02-25T10:19:13.485Z,24.07
2019-02-25T10:21:42.046Z,25.03
2019-02-25T10:24:11.246Z,23.00
2019-02-25T10:26:39.817Z,18.83
2019-02-25T10:29:08.425Z,24.33
2019-02-25T10:31:38.086Z,20.63
2019-02-25T10:34:07.725Z,21.00
2019-02-25T10:36:36.382Z,19.83
2019-02-25T10:39:09.074Z,19.23
2019-02-25T10:41:39.843Z,18.30
2019-02-25T10:44:08.647Z,31.93
2019-02-25T10:46:39.017Z,23.53
2019-02-25T10:49:11.605Z,23.70
2019-02-25T10:51:39.302Z,17.77
2019-02-25T10:54:08.648Z,16.57
2019-02-25T10:56:40.192Z,17.27
2019-02-25T10:59:09.601Z,18.70
2019-02-25T11:01:39.293Z,16.53
2019-02-25T11:04:08.615Z,16.10
2019-02-25T11:06:37.746Z,18.93
2019-02-25T11:09:11.059Z,17.83
2019-02-25T11:11:41.907Z,20.60
2019-02-25T11:14:10.582Z,16.90
2019-02-25T11:16:39.331Z,19.00
2019-02-25T11:19:08.090Z,16.03
2019-02-25T11:21:37.687Z,17.50
2019-02-25T11:24:07.487Z,24.33
2019-02-25T11:26:36.107Z,21.70
2019-02-25T11:29:05.616Z,17.93
2019-02-25T11:31:35.306Z,19.20
2019-02-25T11:34:05.695Z,20.57
2019-02-25T11:36:34.357Z,16.63
2019-02-25T11:39:04.616Z,20.80
2019-02-25T11:41:34.982Z,20.17
2019-02-25T11:44:05.929Z,23.43
2019-02-25T11:46:34.578Z,25.27
2019-02-25T11:49:03.291Z,21.20
2019-02-25T11:51:31.914Z,24.77
2019-02-25T11:54:02.680Z,18.67
2019-02-25T11:56:31.374Z,18.20
2019-02-25T11:58:59.931Z,16.50
2019-02-25T12:01:28.424Z,29.40
2019-02-25T12:03:57.051Z,21.50
2019-02-25T12:06:25.674Z,20.40
2019-02-25T12:08:54.420Z,20.40
2019-02-25T12:11:23.130Z,17.57
2019-02-25T12:13:52.807Z,17.87
2019-02-25T12:16:21.804Z,19.10
2019-02-25T12:18:50.511Z,17.17
2019-02-25T12:21:19.089Z,17.67
2019-02-25T12:23:47.655Z,20.57
2019-02-25T12:26:16.265Z,19.90
2019-02-25T12:28:44.986Z,18.10
2019-02-25T12:31:13.914Z,18.97
2019-02-25T12:33:42.627Z,16.17
2019-02-25T12:36:11.267Z,17.57
2019-02-25T12:38:40.168Z,17.97
2019-02-25T12:41:09.127Z,21.03
2019-02-25T12:43:37.782Z,21.00
2019-02-25T12:46:06.355Z,24.27
2019-02-25T12:48:34.970Z,38.37
2019-02-25T12:51:05.099Z,37.57
2019-02-25T12:53:33.745Z,23.90
2019-02-25T12:56:02.411Z,19.10
2019-02-25T12:58:31.002Z,26.63
2019-02-25T13:00:59.670Z,25.73
2019-02-25T13:03:28.305Z,19.60
2019-02-25T13:05:56.896Z,20.40
2019-02-25T13:08:25.599Z,23.07
2019-02-25T13:10:54.172Z,19.93
2019-02-25T13:13:22.736Z,19.80
2019-02-25T13:15:51.280Z,19.73
2019-02-25T13:18:20.055Z,18.00
2019-02-25T13:20:48.626Z,21.50
2019-02-25T13:23:17.295Z,18.77
2019-02-25T13:25:45.860Z,17.73
2019-02-25T13:28:14.597Z,18.20
2019-02-25T13:30:43.249Z,20.17
2019-02-25T13:33:11.817Z,30.10
2019-02-25T13:35:40.382Z,24.83
2019-02-25T13:38:09.034Z,20.03
2019-02-25T13:40:40.102Z,21.23
2019-02-25T13:43:08.751Z,21.33
2019-02-25T13:45:37.443Z,24.63
2019-02-25T13:48:06.102Z,22.00
2019-02-25T13:50:35.013Z,20.43
2019-02-25T13:53:03.786Z,20.50
2019-02-25T13:55:32.495Z,20.07
2019-02-25T13:58:01.413Z,19.47
2019-02-25T14:00:31.000Z,24.53
2019-02-25T14:02:59.675Z,21.57
2019-02-25T14:05:29.751Z,24.47
2019-02-25T14:07:58.373Z,28.53
2019-02-25T14:10:26.947Z,25.03
2019-02-25T14:12:55.699Z,20.60
2019-02-25T14:15:25.310Z,22.27
2019-02-25T14:17:53.958Z,21.83
2019-02-25T14:20:24.083Z,21.17
2019-02-25T14:22:52.781Z,22.50
2019-02-25T14:25:27.312Z,23.13
2019-02-25T14:27:56.263Z,22.73
2019-02-25T14:30:26.231Z,21.70
2019-02-25T14:32:55.958Z,20.37
2019-02-25T14:35:29.490Z,23.93
2019-02-25T14:38:05.086Z,23.70
2019-02-25T14:40:32.514Z,24.47
2019-02-25T14:43:05.716Z,23.93
2019-02-25T14:45:34.433Z,26.83
2019-02-25T14:48:05.564Z,24.33
2019-02-25T14:50:33.966Z,22.83
2019-02-25T14:53:04.012Z,23.27
2019-02-25T14:55:33.395Z,23.73
2019-02-25T14:58:04.471Z,22.07
2019-02-25T15:00:35.054Z,22.97
2019-02-25T15:03:04.225Z,22.87
2019-02-25T15:05:32.865Z,24.97
2019-02-25T15:08:01.806Z,24.87
2019-02-25T15:10:31.566Z,22.87
2019-02-25T15:13:01.997Z,24.03
2019-02-25T15:15:31.248Z,24.20
2019-02-25T15:17:59.827Z,27.70
2019-02-25T15:20:28.972Z,19.93
2019-02-25T15:22:57.734Z,24.27
2019-02-25T15:25:29.109Z,21.00
2019-02-25T15:27:58.048Z,22.83
2019-02-25T15:30:32.888Z,23.13
2019-02-25T15:33:01.525Z,23.87
2019-02-25T15:35:32.410Z,22.97
2019-02-25T15:38:00.819Z,25.67
2019-02-25T15:40:29.650Z,21.80
2019-02-25T15:43:06.315Z,30.80
2019-02-25T15:45:38.359Z,28.37
2019-02-25T15:48:09.313Z,26.80
2019-02-25T15:50:38.213Z,31.40
2019-02-25T15:53:09.455Z,29.53
2019-02-25T15:55:38.798Z,34.83
2019-02-25T15:58:08.730Z,34.33
2019-02-25T16:00:38.649Z,37.73
2019-02-25T16:03:10.665Z,32.20
2019-02-25T16:05:39.042Z,28.03
2019-02-25T16:08:09.550Z,27.30
2019-02-25T16:10:38.194Z,32.10
2019-02-25T16:13:10.979Z,33.27
2019-02-25T16:15:37.532Z,28.53
2019-02-25T16:18:06.278Z,28.73
2019-02-25T16:20:35.270Z,62.60
2019-02-25T16:23:07.237Z,51.67
2019-02-25T16:25:35.640Z,61.47
2019-02-25T16:28:05.992Z,43.13
2019-02-25T16:30:34.767Z,54.67
2019-02-25T16:33:07.270Z,45.13
2019-02-25T16:35:36.870Z,56.07
2019-02-25T16:38:07.336Z,35.57
2019-02-25T16:40:38.360Z,40.03
2019-02-25T16:43:12.117Z,38.63
2019-02-25T16:45:40.144Z,39.70
2019-02-25T16:48:09.142Z,46.07
2019-02-25T16:50:39.808Z,39.60
2019-02-25T16:53:10.894Z,45.23
2019-02-25T16:55:42.756Z,44.23
2019-02-25T16:58:13.313Z,49.10
2019-02-25T17:00:42.808Z,43.37
2019-02-25T17:03:13.682Z,46.43
2019-02-25T17:05:45.643Z,44.40
2019-02-25T17:08:14.819Z,48.07
2019-02-25T17:10:43.404Z,54.77
2019-02-25T17:13:14.325Z,54.20
2019-02-25T17:15:46.048Z,61.00
2019-02-25T17:18:15.133Z,53.80
2019-02-25T17:20:45.055Z,51.70
2019-02-25T17:23:13.913Z,42.77
2019-02-25T17:25:43.617Z,61.47
2019-02-25T17:28:15.348Z,58.10
2019-02-25T17:30:45.020Z,48.97
2019-02-25T17:33:14.832Z,40.80
2019-02-25T17:35:45.350Z,49.13
2019-02-25T17:38:14.185Z,55.73
2019-02-25T17:40:42.828Z,53.53
2019-02-25T17:43:13.352Z,47.60
2019-02-25T17:45:41.852Z,49.40
2019-02-25T17:48:13.506Z,43.57
2019-02-25T17:50:41.698Z,42.77
2019-02-25T17:53:10.415Z,49.20
2019-02-25T17:55:39.328Z,41.47
2019-02-25T17:58:08.896Z,40.87
2019-02-25T18:00:42.559Z,60.67
2019-02-25T18:03:11.390Z,56.93
2019-02-25T18:05:42.924Z,56.63
2019-02-25T18:08:14.894Z,75.70
2019-02-25T18:10:43.660Z,56.07
2019-02-25T18:13:13.260Z,53.57
2019-02-25T18:15:42.173Z,72.63
2019-02-25T18:18:14.091Z,57.63
2019-02-25T18:20:41.768Z,64.83
2019-02-25T18:23:10.624Z,50.87
2019-02-25T18:25:39.709Z,54.13
2019-02-25T18:28:10.843Z,63.43
2019-02-25T18:30:39.802Z,64.33
2019-02-25T18:33:09.488Z,75.43
2019-02-25T18:35:41.619Z,99.93
2019-02-25T18:38:10.339Z,82.27
2019-02-25T18:40:41.357Z,74.60
2019-02-25T18:43:11.810Z,104.23
2019-02-25T18:45:42.633Z,83.47
2019-02-25T18:48:11.049Z,116.03
2019-02-25T18:50:39.774Z,65.80
2019-02-25T18:53:10.224Z,54.80
2019-02-25T18:55:41.317Z,58.33
2019-02-25T18:58:12.594Z,60.57
2019-02-25T19:00:45.357Z,56.10
2019-02-25T19:03:14.323Z,53.27
2019-02-25T19:05:42.999Z,73.67
2019-02-25T19:08:20.301Z,63.73
2019-02-25T19:10:52.712Z,70.37
2019-02-25T19:13:23.334Z,66.70
2019-02-25T19:15:53.088Z,59.83
2019-02-25T19:18:22.493Z,71.37
2019-02-25T19:20:53.418Z,69.53
2019-02-25T19:23:25.736Z,68.30
2019-02-25T19:25:54.536Z,63.07
2019-02-25T19:28:24.422Z,74.10
2019-02-25T19:30:53.858Z,77.60
2019-02-25T19:33:24.319Z,87.90
2019-02-25T19:35:54.386Z,82.57
2019-02-25T19:38:25.118Z,84.73
2019-02-25T19:40:55.950Z,80.00
2019-02-25T19:43:26.012Z,85.53
2019-02-25T19:45:54.657Z,84.03
2019-02-25T19:48:28.337Z,81.50
2019-02-25T19:50:56.149Z,87.37
2019-02-25T19:53:25.565Z,89.67
2019-02-25T19:55:55.819Z,86.00
2019-02-25T19:58:26.789Z,85.83
2019-02-25T20:01:00.295Z,88.23
2019-02-25T20:03:25.885Z,96.73
2019-02-25T20:05:56.389Z,99.30
2019-02-25T20:08:25.443Z,98.13
2019-02-25T20:10:55.604Z,90.67
2019-02-25T20:13:24.319Z,83.37
2019-02-25T20:15:53.343Z,75.03
2019-02-25T20:18:23.224Z,118.37
2019-02-25T20:20:52.046Z,80.37
2019-02-25T20:23:23.991Z,90.77
2019-02-25T20:25:53.490Z,81.23
2019-02-25T20:28:26.681Z,97.20
2019-02-25T20:30:55.684Z,81.27
2019-02-25T20:33:31.837Z,76.90
2019-02-25T20:35:58.940Z,78.27
2019-02-25T20:38:29.612Z,79.07
2019-02-25T20:41:02.563Z,75.90
2019-02-25T20:43:33.096Z,76.03
2019-02-25T20:46:05.804Z,68.77
2019-02-25T20:48:35.344Z,78.77
2019-02-25T20:51:06.729Z,71.90
2019-02-25T20:53:34.662Z,70.07
2019-02-25T20:56:03.359Z,77.33
2019-02-25T20:58:36.077Z,81.80
2019-02-25T21:01:07.502Z,70.50
2019-02-25T21:03:41.520Z,86.53
2019-02-25T21:06:12.684Z,78.03
2019-02-25T21:08:42.346Z,77.97
2019-02-25T21:11:15.647Z,75.80
2019-02-25T21:13:43.949Z,69.60
2019-02-25T21:16:16.121Z,76.00
2019-02-25T21:18:46.639Z,69.57
2019-02-25T21:21:17.873Z,93.73
2019-02-25T21:23:50.007Z,110.97
2019-02-25T21:26:18.586Z,88.00
2019-02-25T21:28:48.920Z,102.63
2019-02-25T21:31:21.378Z,74.50
2019-02-25T21:33:54.241Z,83.70
2019-02-25T21:36:24.487Z,84.57
2019-02-25T21:38:56.055Z,79.60
2019-02-25T21:41:24.897Z,74.87
2019-02-25T21:43:59.103Z,68.73
2019-02-25T21:46:28.909Z,72.07
2019-02-25T21:49:01.525Z,76.50
2019-02-25T21:51:32.666Z,70.37
2019-02-25T21:54:04.435Z,79.50
2019-02-25T21:56:33.121Z,104.93
2019-02-25T21:59:01.740Z,82.73
2019-02-25T22:01:32.325Z,82.43
2019-02-25T22:04:03.270Z,89.03
2019-02-25T22:06:33.256Z,72.77
2019-02-25T22:09:03.010Z,76.97
2019-02-25T22:11:32.606Z,94.43
2019-02-25T22:14:01.240Z,87.53
2019-02-25T22:16:32.125Z,117.93
2019-02-25T22:19:04.309Z,101.03
2019-02-25T22:21:34.588Z,96.47
2019-02-25T22:24:05.832Z,104.13
2019-02-25T22:26:35.984Z,83.53
2019-02-25T22:29:08.377Z,79.63
2019-02-25T22:31:39.418Z,76.30
2019-02-25T22:34:08.857Z,75.07
2019-02-25T22:36:41.633Z,82.93
2019-02-25T22:39:08.526Z,100.67
2019-02-25T22:41:37.095Z,85.20
2019-02-25T22:44:08.474Z,80.37
2019-02-25T22:46:41.343Z,80.03
2019-02-25T22:49:09.902Z,90.70
2019-02-25T22:51:38.596Z,86.87
2019-02-25T22:54:10.384Z,82.77
2019-02-25T22:56:42.560Z,86.67
2019-02-25T22:59:11.256Z,73.23
2019-02-25T23:01:40.985Z,94.43
2019-02-25T23:04:13.050Z,96.23
2019-02-25T23:06:42.438Z,82.83
2019-02-25T23:09:14.369Z,105.93
2019-02-25T23:11:44.283Z,90.87
2019-02-25T23:14:15.829Z,101.17
2019-02-25T23:16:45.858Z,85.63
2019-02-25T23:19:15.800Z,85.37
2019-02-25T23:21:45.244Z,85.33
2019-02-25T23:24:13.862Z,79.63
2019-02-25T23:26:42.361Z,83.60
2019-02-25T23:29:10.865Z,84.33
2019-02-25T23:31:39.550Z,80.17
2019-02-25T23:34:10.382Z,74.53
2019-02-25T23:36:42.999Z,79.80
2019-02-25T23:39:09.869Z,80.07
2019-02-25T23:41:38.968Z,84.00
2019-02-25T23:44:11.133Z,92.53
2019-02-25T23:46:40.796Z,92.43
2019-02-25T23:49:10.892Z,77.53
2019-02-25T23:51:41.521Z,92.87
2019-02-25T23:54:12.154Z,94.17
2019-02-25T23:56:45.465Z,83.43
2019-02-25T23:59:14.564Z,73.70
